Hatch, Utah
Current Conditions -  °F | °C
As of 3:53 AM on Sunday 26 Oct 2014 (Local Time) from KBCE Reporting Station
Clear Clear  
Wind Chill: 44°   Ceiling: Unl
Heat Index: 47°   Visibility: 10mi
Dew Point: 36°   Wind: 7mph
Humidity: 66%   Direction: 270°W
Pressure: 30.18"   Gusts: NA
Location:  37.65°N, 112.43°W
Report Text: KBCE 260953Z AUTO 27006KT 10SM CLR 08/02 A3018 RMK AO2 SLP117 T00830022 TSNO
Loading
Personal Weather Stations






























Interactive Weather Map
Tropical Storm Tracking
New forecast layout! Learn more

10-Day Weather Forecast

Advertisements
Track Severe Weather on mobile